メインページ
METAR-TAF:

METAR-TAF

空港 :

平壌国際空港

平壌, 朝鮮民主主義人民共和国

緯度: 39-02N, 経度: 125-47E, 海抜: 36m

METAR: 見つかりません

時間: 11:07 (02:37 UTC)

予報

当レポートは5時間27分前の21:10(UTC)に作成
予報は15日の 00時(UTC)から 15日の 24時(UTC)まで有効
の風 6kt
視程10km以上
高度3300ftの曇り
15日の 04時(UTC)から 15日の 06時(UTC)まで徐々に
西/北西の風 10kt
15日の 10時(UTC)から 15日の 12時(UTC)まで徐々に
南東の風 8kt
15日の 20時(UTC)から 15日の 24時(UTC)まで一時的に
視程: 4000m
高度1000ftの曇り
小雪

TAF: ZKPY 142110Z 1500/1524 17003MPS 9999 OVC033 TX02/1506Z TNM03/1521Z BECMG 1504/1506 29005MPS BECMG 1510/1512 14004MPS TEMPO 1520/1524 4000 -SN OVC010

4,000以上の空港の気象観測と天気予報(METAR報とTAF報)

利用可能な観測所は地図上に黄色い丸と赤い丸で示す。

丸の上にカーソルを重ねると観測所名を参照できる。

次にクリックすると気象観測と天気予報を参照できる。

マップの切り替え:黒色「×」印の緑ボタンをクリックして拡大、「-」印の緑ボタンをクリックして縮小、緑色の三角印をクリックして隣りの地図に切り替え


METAR-TAF: